Latest Coastal Weather Observations for Samuel Hill

IDQ60701

Issued at 9:32 am EST Wednesday 16 October 2019 (issued every 10 minutes, with the page automatically refreshed every 10 minutes)

About coastal observations | Map of coastal stations | Coastal observations for QLD | Marine services | Other Formats
Station Details ID: 033308 Name: SAMUEL HILL AERO Lat: -22.74 Lon: 150.66 Height: 31.0 m
Data from the previous 72 hours. | See also: Recent months at Samuel Hill
Date/Time
EST
Wind Sea
Height
m
Swell Vis
km
Cloud Weather Temp
°C
Press
hPa
Rain since
9am
mm
Dir  Spd
kts
Gust
kts
Height
m
Period
s
Dir
16/09:30am N 9 15 - - - - 10 Partly cloudy - 25.6 1016.9 0.0
16/09:00am NNE 10 15 - - - - - Cloudy - 27.0 1016.9 0.0
16/08:30am NNE 9 17 - - - - - Partly cloudy - 24.9 1016.9 0.0
16/08:00am N 6 9 - - - - - Partly cloudy - 24.0 1016.7 0.0
16/07:30am N 8 14 - - - - - Partly cloudy - 24.8 1016.4 0.0
16/07:00am NNE 7 11 - - - - - Partly cloudy - 24.3 1016.0 0.0
16/06:30am NNE 5 9 - - - - - Partly cloudy - 23.2 1015.5 0.0
16/06:00am NNE 5 9 - - - - - - - 21.9 1014.9 0.0
16/05:30am NNE 5 8 - - - - - Partly cloudy - 21.5 1014.5 0.0
16/05:00am NNE 5 8 - - - - - Cloudy - 21.8 1014.1 0.0
16/04:30am NNE 5 9 - - - - - Partly cloudy - 21.4 1013.8 0.0
16/04:00am NNE 5 6 - - - - - Partly cloudy - 21.4 1013.5 0.0
16/03:30am N 5 8 - - - - - Cloudy - 21.8 1012.9 0.0
16/03:00am N 4 7 - - - - - Partly cloudy - 21.4 1012.6 0.0
16/02:30am NNE 5 6 - - - - - - - 21.4 1012.5 0.0
16/02:00am NNE 6 10 - - - - - - - 21.6 1012.6 0.0
16/01:30am NNE 5 7 - - - - - - - 21.5 1012.6 0.0
16/01:00am NNE 5 9 - - - - - - - 21.6 1012.8 0.0
16/12:30am NNE 4 8 - - - - - Partly cloudy - 21.7 1013.0 0.0
16/12:00am NNE 5 7 - - - - 10 Cloudy - 21.7 1013.1 0.0
 
Date/Time
EST
Wind Sea
Height
m
Swell Vis
km
Cloud Weather Temp
°C
Press
hPa
Rain since
9am
mm
Dir  Spd
kts
Gust
kts
Height
m
Period
s
Dir
15/11:30pm NE 4 5 - - - - 10 Cloudy - 21.7 1013.2 0.0
15/11:00pm NE 4 6 - - - - 10 Cloudy - 21.8 1013.1 0.0
15/10:30pm NE 4 6 - - - - 10 Cloudy - 22.0 1013.0 0.0
15/10:00pm NNE 5 7 - - - - 10 Partly cloudy - 22.0 1012.7 0.0
15/09:30pm NE 6 9 - - - - 10 - - 22.0 1012.6 0.0
15/09:00pm NE 5 9 - - - - 10 - - 22.2 1012.8 0.0
15/08:30pm N 8 13 - - - - 10 Partly cloudy - 22.5 1012.7 0.0
15/08:00pm N 7 9 - - - - 10 Partly cloudy - 22.4 1012.8 0.0
15/07:30pm NNW 5 8 - - - - 10 Partly cloudy - 22.6 1013.0 0.0
15/07:00pm N 5 8 - - - - 10 - - 22.7 1012.0 0.0
15/06:30pm NNW 7 11 - - - - 10 - - 23.2 1011.4 0.0
15/06:00pm NNW 9 15 - - - - 10 - - 23.7 1011.1 0.0
15/05:30pm NNW 9 13 - - - - 10 - - 24.5 1010.8 0.0
15/05:00pm NNW 11 18 - - - - 10 - - 25.2 1010.5 0.0
15/04:30pm NNW 11 19 - - - - 10 - - 26.2 1010.5 0.0
15/04:00pm NNW 11 17 - - - - 10 - - 26.8 1010.5 0.0
15/03:30pm NNW 11 15 - - - - 10 - - 27.0 1010.8 0.0
15/03:00pm NNW 14 22 - - - - 10 - - 26.9 1010.3 0.0
15/02:30pm NNW 14 24 - - - - 10 - - 27.0 1010.4 0.0
15/02:00pm NNW 14 21 - - - - 10 - - 27.0 1011.1 0.0
15/01:30pm N 14 22 - - - - 10 - - 26.7 1011.6 0.0
15/01:00pm N 14 23 - - - - 10 - - 27.0 1012.0 0.0
15/12:30pm NNW 13 24 - - - - 10 - - 26.9 1012.6 0.0
15/12:00pm N 13 21 - - - - 10 Mostly clear - 27.5 1013.2 0.0
15/11:30am NNW 13 21 - - - - 10 Partly cloudy - 27.2 1013.9 0.0
15/11:00am NNW 13 19 - - - - 10 Partly cloudy - 27.1 1014.4 0.0
15/10:30am N 12 22 - - - - 10 Partly cloudy - 26.2 1014.4 0.0
15/10:00am N 10 16 - - - - 10 Partly cloudy - 26.1 1015.2 0.0
15/09:30am NNW 10 16 - - - - - Partly cloudy - 25.4 1015.6 0.0
15/09:00am N 9 14 - - - - - Cloudy - 24.4 1015.9 0.0
15/08:30am NNW 11 16 - - - - - Partly cloudy - 24.6 1015.9 0.0
15/08:00am N 9 14 - - - - - Cloudy - 24.4 1016.0 0.0
15/07:30am NNW 6 10 - - - - - Cloudy - 22.7 1016.1 0.0
15/07:00am CALM 0 0 - - - - - Cloudy - 20.4 1015.8 0.0
15/06:30am CALM 0 0 - - - - - Cloudy - 19.6 1015.5 0.0
15/06:00am CALM 0 0 - - - - - Cloudy - 18.6 1015.3 0.0
15/05:30am NNE 4 5 - - - - - Cloudy - 17.3 1014.6 0.0
15/05:00am CALM 0 0 - - - - - Partly cloudy - 16.7 1014.5 0.0
15/04:30am N 2 5 - - - - - - - 17.6 1014.3 0.0
15/04:00am NNW 4 5 - - - - - - - 18.8 1013.8 0.0
15/03:30am N 5 8 - - - - - Partly cloudy - 19.7 1013.7 0.0
15/03:00am N 4 5 - - - - - Mostly cloudy - 18.4 1013.9 0.0
15/02:30am N 5 6 - - - - - Partly cloudy - 17.9 1014.0 0.0
15/02:00am N 4 6 - - - - - - - 19.3 1014.3 0.0
15/01:30am N 5 7 - - - - 10 - - 19.4 1014.5 0.0
15/01:11am N 5 6 - - - - 7 - - 19.2 1014.8 0.0
15/01:00am NW 4 5 - - - - 10 - - 18.0 1015.0 0.0
15/12:38am NNW 4 6 - - - - 10 - - 19.5 1015.2 0.0
15/12:30am N 4 5 - - - - 10 - - 19.6 1015.3 0.0
15/12:26am N 4 6 - - - - 7 - - 19.6 1015.3 0.0
15/12:00am NNW 4 7 - - - - 10 - - 20.2 1015.7 0.0
 
Date/Time
EST
Wind Sea
Height
m
Swell Vis
km
Cloud Weather Temp
°C
Press
hPa
Rain since
9am
mm
Dir  Spd
kts
Gust
kts
Height
m
Period
s
Dir
14/11:30pm N 5 7 - - - - 10 - - 20.2 1015.8 0.0
14/11:00pm N 4 7 - - - - 10 - - 20.4 1016.1 0.0
14/10:30pm NNE 5 9 - - - - 10 - - 19.7 1016.3 0.0
14/10:00pm NNE 4 5 - - - - 10 - - 18.5 1016.5 0.0
14/09:30pm NNE 4 5 - - - - 10 - - 18.9 1016.9 0.0
14/09:00pm NE 4 5 - - - - 10 - - 19.4 1017.2 0.0
14/08:30pm NNE 4 5 - - - - 10 - - 20.7 1017.2 0.0
14/08:00pm NNE 6 8 - - - - 10 Partly cloudy - 21.7 1016.7 0.0
14/07:30pm NNE 6 10 - - - - 10 Cloudy - 21.9 1016.3 0.0
14/07:00pm NNE 6 9 - - - - 10 Cloudy - 22.1 1016.2 0.0
14/06:30pm NNE 7 11 - - - - 10 Cloudy - 22.1 1015.9 0.0
14/06:00pm NNE 9 13 - - - - 10 Cloudy - 22.3 1015.6 0.0
14/05:30pm NNE 9 13 - - - - 10 Cloudy - 22.5 1015.3 0.0
14/05:00pm NNE 10 14 - - - - 10 Cloudy - 23.0 1014.8 0.0
14/04:30pm NNE 9 14 - - - - 10 Partly cloudy - 23.7 1014.5 0.0
14/04:00pm NE 10 16 - - - - 10 Partly cloudy - 23.6 1014.5 0.0
14/03:30pm NE 11 18 - - - - 10 Partly cloudy - 23.7 1014.5 0.0
14/03:00pm NE 12 17 - - - - 10 Mostly clear - 24.1 1014.6 0.0
14/02:30pm NE 11 17 - - - - 10 Partly cloudy - 24.6 1014.8 0.0
14/02:00pm NE 10 16 - - - - 10 Partly cloudy - 25.1 1015.1 0.0
14/01:30pm NNE 9 14 - - - - 10 Cloudy - 25.8 1015.3 0.0
14/01:00pm NNE 10 15 - - - - 10 Partly cloudy - 25.5 1015.9 0.0
14/12:30pm NE 10 15 - - - - 10 Cloudy - 25.5 1016.3 0.0
14/12:00pm NE 7 13 - - - - 10 Cloudy - 26.0 1016.9 0.0
14/11:30am ENE 6 10 - - - - 10 Partly cloudy - 25.1 1017.6 0.0
14/11:00am ENE 7 11 - - - - 10 Partly cloudy - 25.0 1018.0 0.0
14/10:30am E 8 11 - - - - 10 Partly cloudy - 24.9 1018.3 0.0
14/10:00am E 6 9 - - - - 10 Cloudy - 25.3 1018.8 0.0
14/09:30am NE 6 12 - - - - 10 Partly cloudy - 24.8 1019.0 0.0
14/09:00am E 8 13 - - - - 10 Partly cloudy - 24.0 1019.3 0.0
14/08:30am NE 8 12 - - - - 10 Partly cloudy - 24.5 1019.3 0.0
14/08:00am ENE 5 8 - - - - - - - 23.4 1019.2 0.0
14/07:30am SE 3 5 - - - - - - - 21.5 1019.3 0.0
14/07:00am CALM 0 0 - - - - - Partly cloudy - 19.1 1019.2 0.0
14/06:30am CALM 0 0 - - - - - Partly cloudy - 16.4 1018.7 0.0
14/06:00am CALM 0 0 - - - - - Mostly clear - 13.8 1018.3 0.0
14/05:30am CALM 0 0 - - - - - Partly cloudy - 12.7 1017.9 0.0
14/05:00am CALM 0 0 - - - - - Partly cloudy - 12.7 1017.8 0.0
14/04:30am CALM 0 0 - - - - - - - 13.0 1017.7 0.0
14/04:00am CALM 0 0 - - - - - - - 13.2 1017.4 0.0
14/03:30am CALM 0 0 - - - - - - - 13.2 1017.2 0.0
14/03:00am CALM 0 0 - - - - - - - 13.3 1017.3 0.0
14/02:30am CALM 0 0 - - - - - Partly cloudy - 13.7 1017.3 0.0
14/02:00am CALM 0 0 - - - - - - - 13.7 1017.3 0.0
14/01:30am CALM 0 0 - - - - - Partly cloudy - 13.8 1017.4 0.0
14/01:08am CALM 0 0 - - - - - Partly cloudy - 14.2 1017.4 0.0
14/01:00am CALM 0 0 - - - - - Partly cloudy - 14.4 1017.5 0.0
14/12:30am CALM 0 0 - - - - - Partly cloudy - 14.7 1017.8 0.0
14/12:29am CALM 0 0 - - - - - Partly cloudy - 14.7 1017.8 0.0
14/12:00am CALM 0 0 - - - - - - - 15.0 1017.9 0.0
 
Date/Time
EST
Wind Sea
Height
m
Swell Vis
km
Cloud Weather Temp
°C
Press
hPa
Rain since
9am
mm
Dir  Spd
kts
Gust
kts
Height
m
Period
s
Dir
13/11:30pm CALM 0 0 - - - - 10 - - 15.3 1018.0 0.0
13/11:00pm CALM 0 0 - - - - 10 - - 15.6 1018.0 0.0
13/10:30pm CALM 0 0 - - - - 10 - - 16.1 1017.8 0.0
13/10:00pm CALM 0 0 - - - - 10 Partly cloudy - 16.6 1017.6 0.0
13/09:30pm CALM 0 0 - - - - 10 Partly cloudy - 17.1 1017.5 0.0
13/09:18pm CALM 0 0 - - - - 10 Partly cloudy - 16.9 1017.5 0.0
13/09:05pm CALM 0 0 - - - - 10 Partly cloudy - 17.2 1017.5 0.0
13/09:00pm CALM 0 0 - - - - 10 Partly cloudy - 17.2 1017.5 0.0
13/08:30pm CALM 0 0 - - - - 10 - - 17.7 1017.1 0.0
13/08:00pm CALM 0 0 - - - - 10 - - 18.4 1016.7 0.0
13/07:30pm CALM 0 0 - - - - 10 - - 19.4 1016.1 0.0
13/07:00pm NE 1 3 - - - - 10 - - 20.1 1015.7 0.0
13/06:30pm NNE 5 6 - - - - 10 - - 20.9 1015.3 0.0
13/06:00pm NE 6 8 - - - - 10 - - 21.8 1014.8 0.0
13/05:30pm NE 8 12 - - - - 10 - - 22.6 1014.4 0.0
13/05:00pm NE 9 12 - - - - 10 - - 23.1 1014.1 0.0
13/04:30pm NNE 10 13 - - - - 10 Partly cloudy - 24.2 1013.9 0.0
13/04:00pm ENE 10 14 - - - - 10 - - 24.5 1013.8 0.0
13/03:30pm NE 10 15 - - - - 10 - - 25.8 1013.7 0.0
13/03:00pm ENE 10 15 - - - - 10 - - 26.3 1013.6 0.0
13/02:30pm ENE 8 13 - - - - 10 Partly cloudy - 27.8 1013.9 0.0
13/02:00pm E 10 15 - - - - 10 Partly cloudy - 27.1 1014.2 0.0
13/01:30pm E 9 14 - - - - 10 - - 27.1 1014.6 0.0
13/01:00pm ENE 10 14 - - - - 10 Partly cloudy - 26.6 1014.7 0.0
13/12:30pm ENE 9 13 - - - - 10 Partly cloudy - 26.0 1015.2 0.0
13/12:00pm ENE 8 12 - - - - 10 Cloudy - 26.4 1015.7 0.0
13/11:30am ENE 7 11 - - - - 10 Partly cloudy - 28.5 1015.8 0.0
13/11:00am NE 4 5 - - - - 10 Partly cloudy - 26.7 1016.2 0.0
13/10:30am SSW 3 7 - - - - 10 Partly cloudy - 25.9 1016.5 0.0
13/10:00am S 4 8 - - - - 10 Partly cloudy - 26.1 1016.7 0.0

Other formats

Comma delimited format used in spreadsheet applications
http://www.bom.gov.au/fwo/IDQ60701/IDQ60701.94370.axf

JavaScript Object Notation format (JSON) in row-major order
http://www.bom.gov.au/fwo/IDQ60701/IDQ60701.94370.json

Data quality

Most of these data are generated automatically and are frequently updated. Quality checks on data are not normally performed. It is possible for incorrect values to appear. Refer to information at About Latest Weather Observations and please check the disclaimer before using these data.